Create Tblcommutelog Verified Points Advance Search
| # | Trip ID | Id Commuter | Trip Date | Trip Num | Current Lat | Current Lng | Delta Distance | Current Time | Activity | Activity Confidence | Current Speed | |
|---|---|---|---|---|---|---|---|---|---|---|---|---|
| 69421 | 251001_787976_16510190_0716 | 787976 | (not set) | (not set) | 38.6595741 | -77.2805516 | 0 | 2025-10-01 07:17:09 | in_vehicle | 100 | 0 | |
| 69422 | 251001_786996_16514883_0649 | 786996 | (not set) | (not set) | 38.8887803 | -77.0213843 | 3.7279 | 2025-10-01 07:09:53 | on_bicycle | 100 | 3.7908929162159 | |
| 69423 | 251001_786996_16514883_0649 | 786996 | (not set) | (not set) | 38.8887803 | -77.0213843 | 3.7279 | 2025-10-01 07:09:53 | on_bicycle | 100 | 3.7908929162159 | |
| 69424 | 251001_786996_16514883_0649 | 786996 | (not set) | (not set) | 38.8887803 | -77.0213843 | 3.7279 | 2025-10-01 07:09:53 | on_bicycle | 100 | 3.7908929162159 | |
| 69425 | 251001_786996_16514883_0649 | 786996 | (not set) | (not set) | 38.8888002 | -77.0196296 | 3.8225 | 2025-10-01 07:10:10 | on_bicycle | 100 | 4.0233533308895 | |
| 69426 | 251001_786996_16514883_0649 | 786996 | (not set) | (not set) | 38.8888002 | -77.0196296 | 3.8225 | 2025-10-01 07:10:10 | on_bicycle | 100 | 4.0233533308895 | |
| 69427 | 251001_786996_16514883_0649 | 786996 | (not set) | (not set) | 38.8888002 | -77.0196296 | 3.8225 | 2025-10-01 07:10:10 | on_bicycle | 100 | 4.0233533308895 | |
| 69428 | 251001_786996_16514883_0649 | 786996 | (not set) | (not set) | 38.8888305 | -77.0178539 | 3.9182 | 2025-10-01 07:10:27 | on_bicycle | 100 | 3.9920605827604 | |
| 69429 | 251001_786996_16514883_0649 | 786996 | (not set) | (not set) | 38.8888305 | -77.0178539 | 3.9182 | 2025-10-01 07:10:27 | on_bicycle | 100 | 3.9920605827604 | |
| 69430 | 251001_786996_16514883_0649 | 786996 | (not set) | (not set) | 38.8888305 | -77.0178539 | 3.9182 | 2025-10-01 07:10:27 | on_bicycle | 100 | 3.9920605827604 | |
| 69431 | 251001_786996_16514883_0649 | 786996 | (not set) | (not set) | 38.8888502 | -77.0160706 | 4.0144 | 2025-10-01 07:10:45 | on_bicycle | 100 | 3.8937119457831 | |
| 69432 | 251001_786996_16514883_0649 | 786996 | (not set) | (not set) | 38.8888502 | -77.0160706 | 4.0144 | 2025-10-01 07:10:45 | on_bicycle | 100 | 3.8937119457831 | |
| 69433 | 251001_786996_16514883_0649 | 786996 | (not set) | (not set) | 38.8888502 | -77.0160706 | 4.0144 | 2025-10-01 07:10:45 | on_bicycle | 100 | 3.8937119457831 | |
| 69434 | 251001_786996_16514883_0649 | 786996 | (not set) | (not set) | 38.8900242 | -77.0151274 | 4.1101 | 2025-10-01 07:11:08 | on_bicycle | 100 | 3.9562974420414 | |
| 69435 | 251001_786996_16514883_0649 | 786996 | (not set) | (not set) | 38.8900242 | -77.0151274 | 4.1101 | 2025-10-01 07:11:08 | on_bicycle | 100 | 3.9562974420414 | |
| 69436 | 251001_786996_16514883_0649 | 786996 | (not set) | (not set) | 38.8900242 | -77.0151274 | 4.1101 | 2025-10-01 07:11:08 | on_bicycle | 100 | 3.9562974420414 | |
| 69437 | 251001_786996_16514883_0649 | 786996 | (not set) | (not set) | 38.8913919 | -77.0151173 | 4.2044 | 2025-10-01 07:11:26 | on_bicycle | 100 | 3.7372482051374 | |
| 69438 | 251001_786996_16514883_0649 | 786996 | (not set) | (not set) | 38.8913919 | -77.0151173 | 4.2044 | 2025-10-01 07:11:26 | on_bicycle | 100 | 3.7372482051374 | |
| 69439 | 251001_786996_16514883_0649 | 786996 | (not set) | (not set) | 38.8913919 | -77.0151173 | 4.2044 | 2025-10-01 07:11:26 | on_bicycle | 100 | 3.7372482051374 | |
| 69440 | 251001_786996_16514883_0649 | 786996 | (not set) | (not set) | 38.8922456 | -77.0136904 | 4.3013 | 2025-10-01 07:11:49 | on_bicycle | 100 | 3.7953633088058 |